sensor_id;sensor_type;location;lat;lon;timestamp;pressure;altitude;pressure_sealevel;temperature
37414;BMP280;23279;46.472;30.760;2022-11-20T00:01:45;79371.16;;;-146.33
37414;BMP280;23279;46.472;30.760;2022-11-20T00:04:10;79387.47;;;-146.33
37414;BMP280;23279;46.472;30.760;2022-11-20T00:06:37;79375.25;;;-146.33
37414;BMP280;23279;46.472;30.760;2022-11-20T00:09:03;79375.25;;;-146.33
37414;BMP280;23279;46.472;30.760;2022-11-20T00:11:31;79379.31;;;-146.33
37414;BMP280;23279;46.472;30.760;2022-11-20T00:13:58;79363.03;;;-146.33
37414;BMP280;23279;46.472;30.760;2022-11-20T00:16:26;79354.88;;;-146.33
37414;BMP280;23279;46.472;30.760;2022-11-20T00:18:52;79344.69;;;-146.33
37414;BMP280;23279;46.472;30.760;2022-11-20T00:21:23;79363.03;;;-146.33
37414;BMP280;23279;46.472;30.760;2022-11-20T00:23:50;79320.28;;;-146.33
37414;BMP280;23279;46.472;30.760;2022-11-20T00:26:19;79297.88;;;-146.33
37414;BMP280;23279;46.472;30.760;2022-11-20T00:28:49;79265.31;;;-146.33
37414;BMP280;23279;46.472;30.760;2022-11-20T00:31:15;79249.03;;;-146.33
37414;BMP280;23279;46.472;30.760;2022-11-20T00:33:42;79240.88;;;-146.33
37414;BMP280;23279;46.472;30.760;2022-11-20T00:36:10;79228.66;;;-146.33
37414;BMP280;23279;46.472;30.760;2022-11-20T00:38:36;79196.09;;;-146.33
37414;BMP280;23279;46.472;30.760;2022-11-20T00:41:06;79181.84;;;-146.33
37414;BMP280;23279;46.472;30.760;2022-11-20T00:43:32;79167.59;;;-146.33
37414;BMP280;23279;46.472;30.760;2022-11-20T00:46:18;79155.38;;;-146.33
37414;BMP280;23279;46.472;30.760;2022-11-20T00:48:44;79135.00;;;-146.33
37414;BMP280;23279;46.472;30.760;2022-11-20T00:51:11;79112.63;;;-146.33
37414;BMP280;23279;46.472;30.760;2022-11-20T00:53:37;79122.81;;;-146.33
37414;BMP280;23279;46.472;30.760;2022-11-20T00:56:05;79071.91;;;-146.33
37414;BMP280;23279;46.472;30.760;2022-11-20T00:58:38;79045.44;;;-146.33
37414;BMP280;23279;46.472;30.760;2022-11-20T01:01:30;79018.97;;;-146.33
37414;BMP280;23279;46.472;30.760;2022-11-20T01:03:57;78996.59;;;-146.33
37414;BMP280;23279;46.472;30.760;2022-11-20T01:06:25;78947.75;;;-146.33
37414;BMP280;23279;46.472;30.760;2022-11-20T01:08:53;78870.38;;;-146.33
37414;BMP280;23279;46.472;30.760;2022-11-20T01:11:22;78819.50;;;-146.33
37414;BMP280;23279;46.472;30.760;2022-11-20T01:13:49;78795.06;;;-146.33
37414;BMP280;23279;46.472;30.760;2022-11-20T01:16:25;78770.66;;;-146.33
37414;BMP280;23279;46.472;30.760;2022-11-20T01:18:52;78727.91;;;-146.33
37414;BMP280;23279;46.472;30.760;2022-11-20T01:21:21;78729.94;;;-146.33
37414;BMP280;23279;46.472;30.760;2022-11-20T01:23:47;78736.03;;;-146.33
37414;BMP280;23279;46.472;30.760;2022-11-20T01:26:16;78731.97;;;-146.33
37414;BMP280;23279;46.472;30.760;2022-11-20T01:28:42;78740.13;;;-146.33
37414;BMP280;23279;46.472;30.760;2022-11-20T01:31:16;78746.22;;;-146.33
37414;BMP280;23279;46.472;30.760;2022-11-20T01:33:43;78736.03;;;-146.33
37414;BMP280;23279;46.472;30.760;2022-11-20T01:36:09;78709.59;;;-146.33
37414;BMP280;23279;46.472;30.760;2022-11-20T01:38:35;78731.97;;;-146.33
37414;BMP280;23279;46.472;30.760;2022-11-20T01:41:00;78723.84;;;-146.33
37414;BMP280;23279;46.472;30.760;2022-11-20T01:43:26;78725.88;;;-146.33
37414;BMP280;23279;46.472;30.760;2022-11-20T01:46:18;78705.50;;;-146.33
37414;BMP280;23279;46.472;30.760;2022-11-20T01:51:28;78711.63;;;-146.33
37414;BMP280;23279;46.472;30.760;2022-11-20T01:53:55;78707.56;;;-146.33
37414;BMP280;23279;46.472;30.760;2022-11-20T01:56:23;78695.34;;;-146.33
37414;BMP280;23279;46.472;30.760;2022-11-20T01:58:53;78689.22;;;-146.33
37414;BMP280;23279;46.472;30.760;2022-11-20T02:01:20;78670.91;;;-146.33
37414;BMP280;23279;46.472;30.760;2022-11-20T02:03:46;78646.50;;;-146.33
37414;BMP280;23279;46.472;30.760;2022-11-20T02:06:23;78636.31;;;-146.33
37414;BMP280;23279;46.472;30.760;2022-11-20T02:08:49;78634.28;;;-146.33
37414;BMP280;23279;46.472;30.760;2022-11-20T02:11:15;78632.25;;;-146.33
37414;BMP280;23279;46.472;30.760;2022-11-20T02:13:41;78626.13;;;-146.33
37414;BMP280;23279;46.472;30.760;2022-11-20T02:19:00;78628.16;;;-146.33
37414;BMP280;23279;46.472;30.760;2022-11-20T02:21:38;78652.59;;;-146.33
37414;BMP280;23279;46.472;30.760;2022-11-20T02:24:11;78654.63;;;-146.33
37414;BMP280;23279;46.472;30.760;2022-11-20T02:29:06;78609.84;;;-146.33
37414;BMP280;23279;46.472;30.760;2022-11-20T02:31:40;78601.72;;;-146.33
37414;BMP280;23279;46.472;30.760;2022-11-20T02:34:06;78615.97;;;-146.33
37414;BMP280;23279;46.472;30.760;2022-11-20T02:36:33;78613.91;;;-146.33
37414;BMP280;23279;46.472;30.760;2022-11-20T02:39:00;78581.34;;;-146.33
37414;BMP280;23279;46.472;30.760;2022-11-20T02:41:36;78589.50;;;-146.33
37414;BMP280;23279;46.472;30.760;2022-11-20T02:44:03;78577.28;;;-146.33
37414;BMP280;23279;46.472;30.760;2022-11-20T02:46:30;78550.81;;;-146.33
37414;BMP280;23279;46.472;30.760;2022-11-20T02:48:55;78552.88;;;-146.33
37414;BMP280;23279;46.472;30.760;2022-11-20T02:51:21;78550.81;;;-146.33
37414;BMP280;23279;46.472;30.760;2022-11-20T02:53:47;78532.50;;;-146.33
37414;BMP280;23279;46.472;30.760;2022-11-20T02:56:12;78536.59;;;-146.33
37414;BMP280;23279;46.472;30.760;2022-11-20T02:58:37;78536.59;;;-146.33
37414;BMP280;23279;46.472;30.760;2022-11-20T03:01:03;78524.38;;;-146.33
37414;BMP280;23279;46.472;30.760;2022-11-20T03:03:28;78536.59;;;-146.33
37414;BMP280;23279;46.472;30.760;2022-11-20T03:05:54;78544.72;;;-146.33
37414;BMP280;23279;46.472;30.760;2022-11-20T03:08:19;78528.44;;;-146.33
37414;BMP280;23279;46.472;30.760;2022-11-20T03:10:45;78520.31;;;-146.33
37414;BMP280;23279;46.472;30.760;2022-11-20T03:13:10;78561.00;;;-146.33
37414;BMP280;23279;46.472;30.760;2022-11-20T03:15:36;78565.06;;;-146.33
37414;BMP280;23279;46.472;30.760;2022-11-20T03:18:02;78607.81;;;-146.33
37414;BMP280;23279;46.472;30.760;2022-11-20T03:20:28;78650.56;;;-146.33
37414;BMP280;23279;46.472;30.760;2022-11-20T03:22:54;78656.66;;;-146.33
37414;BMP280;23279;46.472;30.760;2022-11-20T03:25:20;78652.59;;;-146.33
37414;BMP280;23279;46.472;30.760;2022-11-20T03:27:45;78650.56;;;-146.33
37414;BMP280;23279;46.472;30.760;2022-11-20T03:30:11;78642.41;;;-146.33
37414;BMP280;23279;46.472;30.760;2022-11-20T03:32:36;78638.34;;;-146.33
37414;BMP280;23279;46.472;30.760;2022-11-20T03:35:02;78648.53;;;-146.33
37414;BMP280;23279;46.472;30.760;2022-11-20T03:37:27;78658.69;;;-146.33
37414;BMP280;23279;46.472;30.760;2022-11-20T03:39:53;78638.34;;;-146.33
37414;BMP280;23279;46.472;30.760;2022-11-20T03:42:18;78601.72;;;-146.33
37414;BMP280;23279;46.472;30.760;2022-11-20T03:45:03;78605.78;;;-146.33
37414;BMP280;23279;46.472;30.760;2022-11-20T03:47:28;78607.81;;;-146.33
37414;BMP280;23279;46.472;30.760;2022-11-20T03:49:53;78579.31;;;-146.33
37414;BMP280;23279;46.472;30.760;2022-11-20T03:52:19;78554.91;;;-146.33
37414;BMP280;23279;46.472;30.760;2022-11-20T03:54:44;78520.31;;;-146.33
37414;BMP280;23279;46.472;30.760;2022-11-20T03:57:10;78481.63;;;-146.33
37414;BMP280;23279;46.472;30.760;2022-11-20T03:59:35;78499.94;;;-146.33
37414;BMP280;23279;46.472;30.760;2022-11-20T04:02:00;78485.69;;;-146.33
37414;BMP280;23279;46.472;30.760;2022-11-20T04:04:26;78477.56;;;-146.33
37414;BMP280;23279;46.472;30.760;2022-11-20T04:06:51;78451.09;;;-146.33
37414;BMP280;23279;46.472;30.760;2022-11-20T04:09:16;78453.13;;;-146.33
37414;BMP280;23279;46.472;30.760;2022-11-20T04:11:42;78455.16;;;-146.33
37414;BMP280;23279;46.472;30.760;2022-11-20T04:14:13;78475.53;;;-146.33
37414;BMP280;23279;46.472;30.760;2022-11-20T04:16:39;78487.72;;;-146.33
37414;BMP280;23279;46.472;30.760;2022-11-20T04:19:09;78501.97;;;-146.33
37414;BMP280;23279;46.472;30.760;2022-11-20T04:21:35;78518.25;;;-146.33
37414;BMP280;23279;46.472;30.760;2022-11-20T04:24:00;78526.41;;;-146.33
37414;BMP280;23279;46.472;30.760;2022-11-20T04:26:27;78528.44;;;-146.33
37414;BMP280;23279;46.472;30.760;2022-11-20T04:28:53;78516.22;;;-146.33
37414;BMP280;23279;46.472;30.760;2022-11-20T04:31:24;78514.19;;;-146.33
37414;BMP280;23279;46.472;30.760;2022-11-20T04:33:51;78516.22;;;-146.33
37414;BMP280;23279;46.472;30.760;2022-11-20T04:36:27;78487.72;;;-146.33
37414;BMP280;23279;46.472;30.760;2022-11-20T04:38:54;78479.59;;;-146.33
37414;BMP280;23279;46.472;30.760;2022-11-20T04:41:21;78447.03;;;-146.33
37414;BMP280;23279;46.472;30.760;2022-11-20T04:43:52;78426.69;;;-146.33
37414;BMP280;23279;46.472;30.760;2022-11-20T04:46:19;78412.44;;;-146.33
37414;BMP280;23279;46.472;30.760;2022-11-20T04:48:46;78426.69;;;-146.33
37414;BMP280;23279;46.472;30.760;2022-11-20T04:51:12;78408.38;;;-146.33
37414;BMP280;23279;46.472;30.760;2022-11-20T04:53:37;78404.28;;;-146.33
37414;BMP280;23279;46.472;30.760;2022-11-20T04:56:05;78383.94;;;-146.33
37414;BMP280;23279;46.472;30.760;2022-11-20T04:58:31;78333.06;;;-146.33
37414;BMP280;23279;46.472;30.760;2022-11-20T05:01:04;78345.28;;;-146.33
37414;BMP280;23279;46.472;30.760;2022-11-20T05:03:30;78312.72;;;-146.33
37414;BMP280;23279;46.472;30.760;2022-11-20T05:05:56;78308.63;;;-146.33
37414;BMP280;23279;46.472;30.760;2022-11-20T05:08:22;78314.75;;;-146.33
37414;BMP280;23279;46.472;30.760;2022-11-20T05:10:47;78298.47;;;-146.33
37414;BMP280;23279;46.472;30.760;2022-11-20T05:13:13;78282.19;;;-146.33
37414;BMP280;23279;46.472;30.760;2022-11-20T05:15:38;78280.16;;;-146.33
37414;BMP280;23279;46.472;30.760;2022-11-20T05:18:03;78280.16;;;-146.33
37414;BMP280;23279;46.472;30.760;2022-11-20T05:20:29;78278.13;;;-146.33
37414;BMP280;23279;46.472;30.760;2022-11-20T05:22:57;78265.91;;;-146.33
37414;BMP280;23279;46.472;30.760;2022-11-20T05:25:22;78251.66;;;-146.33
37414;BMP280;23279;46.472;30.760;2022-11-20T05:27:48;78239.44;;;-146.33
37414;BMP280;23279;46.472;30.760;2022-11-20T05:30:13;78247.59;;;-146.33
37414;BMP280;23279;46.472;30.760;2022-11-20T05:32:39;78233.34;;;-146.33
37414;BMP280;23279;46.472;30.760;2022-11-20T05:35:05;78219.09;;;-146.33
37414;BMP280;23279;46.472;30.760;2022-11-20T05:37:30;78202.81;;;-146.33
37414;BMP280;23279;46.472;30.760;2022-11-20T05:39:55;78186.53;;;-146.33
37414;BMP280;23279;46.472;30.760;2022-11-20T05:42:21;78182.47;;;-146.33
37414;BMP280;23279;46.472;30.760;2022-11-20T05:44:59;78194.69;;;-146.33
37414;BMP280;23279;46.472;30.760;2022-11-20T05:47:25;78196.72;;;-146.33
37414;BMP280;23279;46.472;30.760;2022-11-20T05:49:51;78186.53;;;-146.33
37414;BMP280;23279;46.472;30.760;2022-11-20T05:52:16;78166.19;;;-146.33
37414;BMP280;23279;46.472;30.760;2022-11-20T05:54:42;78158.03;;;-146.33
37414;BMP280;23279;46.472;30.760;2022-11-20T05:57:07;78141.75;;;-146.33
37414;BMP280;23279;46.472;30.760;2022-11-20T05:59:32;78133.63;;;-146.33
37414;BMP280;23279;46.472;30.760;2022-11-20T06:01:58;78099.03;;;-146.33
37414;BMP280;23279;46.472;30.760;2022-11-20T06:04:23;78080.72;;;-146.33
37414;BMP280;23279;46.472;30.760;2022-11-20T06:06:48;78068.50;;;-146.33
37414;BMP280;23279;46.472;30.760;2022-11-20T06:09:14;78046.13;;;-146.33
37414;BMP280;23279;46.472;30.760;2022-11-20T06:11:39;78029.84;;;-146.33
37414;BMP280;23279;46.472;30.760;2022-11-20T06:14:05;78044.09;;;-146.33
37414;BMP280;23279;46.472;30.760;2022-11-20T06:16:31;78048.16;;;-146.33
37414;BMP280;23279;46.472;30.760;2022-11-20T06:18:56;78046.13;;;-146.33
37414;BMP280;23279;46.472;30.760;2022-11-20T06:21:22;78058.34;;;-146.33
37414;BMP280;23279;46.472;30.760;2022-11-20T06:23:49;78056.28;;;-146.33
37414;BMP280;23279;46.472;30.760;2022-11-20T06:26:18;78037.97;;;-146.33
37414;BMP280;23279;46.472;30.760;2022-11-20T06:28:45;78050.19;;;-146.33
37414;BMP280;23279;46.472;30.760;2022-11-20T06:31:12;78029.84;;;-146.33
37414;BMP280;23279;46.472;30.760;2022-11-20T06:33:39;78035.94;;;-146.33
37414;BMP280;23279;46.472;30.760;2022-11-20T06:36:05;78031.88;;;-146.33
37414;BMP280;23279;46.472;30.760;2022-11-20T06:38:31;78048.16;;;-146.33
37414;BMP280;23279;46.472;30.760;2022-11-20T06:40:56;78042.06;;;-146.33
37414;BMP280;23279;46.472;30.760;2022-11-20T06:43:23;78044.09;;;-146.33
37414;BMP280;23279;46.472;30.760;2022-11-20T06:45:55;78033.91;;;-146.33
37414;BMP280;23279;46.472;30.760;2022-11-20T06:48:21;78025.78;;;-146.33
37414;BMP280;23279;46.472;30.760;2022-11-20T06:50:46;78011.53;;;-146.33
37414;BMP280;23279;46.472;30.760;2022-11-20T06:53:12;78029.84;;;-146.33
37414;BMP280;23279;46.472;30.760;2022-11-20T06:55:42;78031.88;;;-146.33
37414;BMP280;23279;46.472;30.760;2022-11-20T06:58:07;78007.47;;;-146.33
37414;BMP280;23279;46.472;30.760;2022-11-20T07:00:33;78021.69;;;-146.33
37414;BMP280;23279;46.472;30.760;2022-11-20T07:03:03;78015.59;;;-146.33
37414;BMP280;23279;46.472;30.760;2022-11-20T07:05:28;78005.44;;;-146.33
37414;BMP280;23279;46.472;30.760;2022-11-20T07:07:56;78007.47;;;-146.33
37414;BMP280;23279;46.472;30.760;2022-11-20T07:10:21;78001.34;;;-146.33
37414;BMP280;23279;46.472;30.760;2022-11-20T07:12:51;77991.19;;;-146.33
37414;BMP280;23279;46.472;30.760;2022-11-20T07:15:17;77983.03;;;-146.33
37414;BMP280;23279;46.472;30.760;2022-11-20T07:17:43;77966.75;;;-146.33
37414;BMP280;23279;46.472;30.760;2022-11-20T07:20:08;77962.69;;;-146.33
37414;BMP280;23279;46.472;30.760;2022-11-20T07:22:34;77944.38;;;-146.33
37414;BMP280;23279;46.472;30.760;2022-11-20T07:24:59;77940.31;;;-146.33
37414;BMP280;23279;46.472;30.760;2022-11-20T07:27:25;77905.72;;;-146.33
37414;BMP280;23279;46.472;30.760;2022-11-20T07:29:51;77905.72;;;-146.33
37414;BMP280;23279;46.472;30.760;2022-11-20T07:32:16;77881.31;;;-146.33
37414;BMP280;23279;46.472;30.760;2022-11-20T07:34:41;77879.25;;;-146.33
37414;BMP280;23279;46.472;30.760;2022-11-20T07:37:07;77871.13;;;-146.33
37414;BMP280;23279;46.472;30.760;2022-11-20T07:39:32;77885.38;;;-146.33
37414;BMP280;23279;46.472;30.760;2022-11-20T07:41:57;77850.78;;;-146.33
37414;BMP280;23279;46.472;30.760;2022-11-20T07:44:23;77840.59;;;-146.33
37414;BMP280;23279;46.472;30.760;2022-11-20T07:46:48;77842.63;;;-146.33
37414;BMP280;23279;46.472;30.760;2022-11-20T07:49:14;77824.31;;;-146.33
37414;BMP280;23279;46.472;30.760;2022-11-20T07:51:39;77820.25;;;-146.33
37414;BMP280;23279;46.472;30.760;2022-11-20T07:54:04;77820.25;;;-146.33
37414;BMP280;23279;46.472;30.760;2022-11-20T07:56:30;77812.13;;;-146.33
37414;BMP280;23279;46.472;30.760;2022-11-20T07:58:55;77810.06;;;-146.33
37414;BMP280;23279;46.472;30.760;2022-11-20T08:01:21;77808.03;;;-146.33
37414;BMP280;23279;46.472;30.760;2022-11-20T08:03:46;77793.81;;;-146.33
37414;BMP280;23279;46.472;30.760;2022-11-20T08:06:12;77777.53;;;-146.33
37414;BMP280;23279;46.472;30.760;2022-11-20T08:08:37;77763.28;;;-146.33
37414;BMP280;23279;46.472;30.760;2022-11-20T08:11:04;77771.41;;;-146.33
37414;BMP280;23279;46.472;30.760;2022-11-20T08:13:48;77749.03;;;-146.33
37414;BMP280;23279;46.472;30.760;2022-11-20T08:16:32;77738.88;;;-146.33
37414;BMP280;23279;46.472;30.760;2022-11-20T08:18:58;77742.94;;;-146.33
37414;BMP280;23279;46.472;30.760;2022-11-20T08:21:23;77714.44;;;-146.33
37414;BMP280;23279;46.472;30.760;2022-11-20T08:23:49;77706.31;;;-146.33
37414;BMP280;23279;46.472;30.760;2022-11-20T08:26:14;77692.06;;;-146.33
37414;BMP280;23279;46.472;30.760;2022-11-20T08:28:40;77696.13;;;-146.33
37414;BMP280;23279;46.472;30.760;2022-11-20T08:31:05;77679.84;;;-146.33
37414;BMP280;23279;46.472;30.760;2022-11-20T08:33:30;77677.81;;;-146.33
37414;BMP280;23279;46.472;30.760;2022-11-20T08:36:02;77677.81;;;-146.33
37414;BMP280;23279;46.472;30.760;2022-11-20T08:38:28;77665.63;;;-146.33
37414;BMP280;23279;46.472;30.760;2022-11-20T08:40:59;77649.34;;;-146.33
37414;BMP280;23279;46.472;30.760;2022-11-20T08:43:44;77637.13;;;-146.33
37414;BMP280;23279;46.472;30.760;2022-11-20T08:46:10;77633.06;;;-146.33
37414;BMP280;23279;46.472;30.760;2022-11-20T08:48:35;77637.13;;;-146.33
37414;BMP280;23279;46.472;30.760;2022-11-20T08:51:01;77612.72;;;-146.33
37414;BMP280;23279;46.472;30.760;2022-11-20T08:53:27;77596.44;;;-146.33
37414;BMP280;23279;46.472;30.760;2022-11-20T08:55:52;77586.25;;;-146.33
37414;BMP280;23279;46.472;30.760;2022-11-20T08:58:18;77582.19;;;-146.33
37414;BMP280;23279;46.472;30.760;2022-11-20T09:00:43;77567.94;;;-146.33
37414;BMP280;23279;46.472;30.760;2022-11-20T09:03:09;77588.31;;;-146.33
37414;BMP280;23279;46.472;30.760;2022-11-20T09:05:34;77600.50;;;-146.33
37414;BMP280;23279;46.472;30.760;2022-11-20T09:08:00;77592.38;;;-146.33
37414;BMP280;23279;46.472;30.760;2022-11-20T09:10:28;77574.06;;;-146.33
37414;BMP280;23279;46.472;30.760;2022-11-20T09:12:54;77612.72;;;-146.33
37414;BMP280;23279;46.472;30.760;2022-11-20T09:15:20;77626.97;;;-146.33
37414;BMP280;23279;46.472;30.760;2022-11-20T09:17:52;77669.69;;;-146.33
37414;BMP280;23279;46.472;30.760;2022-11-20T09:20:18;77671.72;;;-146.33
37414;BMP280;23279;46.472;30.760;2022-11-20T09:22:44;77667.66;;;-146.33
37414;BMP280;23279;46.472;30.760;2022-11-20T09:25:09;77624.91;;;-146.33
37414;BMP280;23279;46.472;30.760;2022-11-20T09:27:35;77647.31;;;-146.33
37414;BMP280;23279;46.472;30.760;2022-11-20T09:30:01;77643.22;;;-146.33
37414;BMP280;23279;46.472;30.760;2022-11-20T09:32:26;77681.88;;;-146.33
37414;BMP280;23279;46.472;30.760;2022-11-20T09:34:52;77685.97;;;-146.33
37414;BMP280;23279;46.472;30.760;2022-11-20T09:37:17;77647.31;;;-146.33
37414;BMP280;23279;46.472;30.760;2022-11-20T09:39:43;77641.19;;;-146.33
37414;BMP280;23279;46.472;30.760;2022-11-20T09:42:14;77622.88;;;-146.33
37414;BMP280;23279;46.472;30.760;2022-11-20T09:45:06;77610.69;;;-146.33
37414;BMP280;23279;46.472;30.760;2022-11-20T09:50:31;77586.25;;;-146.33
37414;BMP280;23279;46.472;30.760;2022-11-20T09:53:08;77557.78;;;-146.33
37414;BMP280;23279;46.472;30.760;2022-11-20T09:55:36;77557.78;;;-146.33
37414;BMP280;23279;46.472;30.760;2022-11-20T09:58:06;77557.78;;;-146.33
37414;BMP280;23279;46.472;30.760;2022-11-20T10:00:32;77553.72;;;-146.33
37414;BMP280;23279;46.472;30.760;2022-11-20T10:03:01;77555.75;;;-146.33
37414;BMP280;23279;46.472;30.760;2022-11-20T10:05:45;77551.69;;;-146.33
37414;BMP280;23279;46.472;30.760;2022-11-20T10:08:25;77557.78;;;-146.33
37414;BMP280;23279;46.472;30.760;2022-11-20T10:11:04;77559.81;;;-146.33
37414;BMP280;23279;46.472;30.760;2022-11-20T10:13:34;77535.41;;;-146.33
37414;BMP280;23279;46.472;30.760;2022-11-20T10:18:55;77494.72;;;-146.33
37414;BMP280;23279;46.472;30.760;2022-11-20T10:21:41;77478.44;;;-146.33
37414;BMP280;23279;46.472;30.760;2022-11-20T10:27:11;77476.41;;;-146.33
37414;BMP280;23279;46.472;30.760;2022-11-20T10:29:43;77468.25;;;-146.33
37414;BMP280;23279;46.472;30.760;2022-11-20T10:32:15;77462.16;;;-146.33
37414;BMP280;23279;46.472;30.760;2022-11-20T10:37:23;77409.25;;;-146.33
37414;BMP280;23279;46.472;30.760;2022-11-20T10:40:18;77380.78;;;-146.33
37414;BMP280;23279;46.472;30.760;2022-11-20T10:42:47;77411.28;;;-146.33
37414;BMP280;23279;46.472;30.760;2022-11-20T10:48:14;77376.72;;;-146.33
37414;BMP280;23279;46.472;30.760;2022-11-20T10:50:44;77344.16;;;-146.33
37414;BMP280;23279;46.472;30.760;2022-11-20T10:53:16;77311.59;;;-146.33
37414;BMP280;23279;46.472;30.760;2022-11-20T10:55:50;77323.81;;;-146.33
37414;BMP280;23279;46.472;30.760;2022-11-20T11:01:14;77311.59;;;-146.33
37414;BMP280;23279;46.472;30.760;2022-11-20T11:03:41;77283.13;;;-146.33
37414;BMP280;23279;46.472;30.760;2022-11-20T11:06:35;77291.25;;;-146.33
37414;BMP280;23279;46.472;30.760;2022-11-20T11:09:04;77281.09;;;-146.33
37414;BMP280;23279;46.472;30.760;2022-11-20T11:11:34;77272.94;;;-146.33
37414;BMP280;23279;46.472;30.760;2022-11-20T11:14:13;77266.84;;;-146.33
37414;BMP280;23279;46.472;30.760;2022-11-20T11:16:55;77250.56;;;-146.33
37414;BMP280;23279;46.472;30.760;2022-11-20T11:19:21;77262.78;;;-146.33
37414;BMP280;23279;46.472;30.760;2022-11-20T11:21:52;77262.78;;;-146.33
37414;BMP280;23279;46.472;30.760;2022-11-20T11:24:26;77266.84;;;-146.33
37414;BMP280;23279;46.472;30.760;2022-11-20T11:29:18;77222.09;;;-146.33
37414;BMP280;23279;46.472;30.760;2022-11-20T11:31:44;77230.22;;;-146.33
37414;BMP280;23279;46.472;30.760;2022-11-20T11:34:16;77220.06;;;-146.33
37414;BMP280;23279;46.472;30.760;2022-11-20T11:36:52;77226.16;;;-146.33
37414;BMP280;23279;46.472;30.760;2022-11-20T11:39:20;77205.81;;;-146.33
37414;BMP280;23279;46.472;30.760;2022-11-20T11:41:46;77201.75;;;-146.33
37414;BMP280;23279;46.472;30.760;2022-11-20T11:44:32;77197.69;;;-146.33
37414;BMP280;23279;46.472;30.760;2022-11-20T11:47:26;77181.41;;;-146.33
37414;BMP280;23279;46.472;30.760;2022-11-20T11:55:12;77183.44;;;-146.33
37414;BMP280;23279;46.472;30.760;2022-11-20T12:00:16;77126.47;;;-146.33
37414;BMP280;23279;46.472;30.760;2022-11-20T12:05:30;77114.28;;;-146.33
37414;BMP280;23279;46.472;30.760;2022-11-20T12:08:17;77110.22;;;-146.33
37414;BMP280;23279;46.472;30.760;2022-11-20T12:16:18;77073.59;;;-146.33
37414;BMP280;23279;46.472;30.760;2022-11-20T12:18:47;77059.34;;;-146.33
37414;BMP280;23279;46.472;30.760;2022-11-20T12:41:16;77130.56;;;-146.33
37414;BMP280;23279;46.472;30.760;2022-11-20T12:47:35;77108.19;;;-146.33
37414;BMP280;23279;46.472;30.760;2022-11-20T12:53:10;77108.19;;;-146.33
37414;BMP280;23279;46.472;30.760;2022-11-20T12:58:16;77167.16;;;-146.33
37414;BMP280;23279;46.472;30.760;2022-11-20T13:01:21;77150.91;;;-146.33
37414;BMP280;23279;46.472;30.760;2022-11-20T13:03:57;77181.41;;;-146.33
37414;BMP280;23279;46.472;30.760;2022-11-20T13:06:25;77230.22;;;-146.33
37414;BMP280;23279;46.472;30.760;2022-11-20T13:08:55;77246.50;;;-146.33
37414;BMP280;23279;46.472;30.760;2022-11-20T13:11:44;77279.06;;;-146.33
37414;BMP280;23279;46.472;30.760;2022-11-20T13:16:53;77336.03;;;-146.33
37414;BMP280;23279;46.472;30.760;2022-11-20T13:19:20;77356.38;;;-146.33
37414;BMP280;23279;46.472;30.760;2022-11-20T13:21:47;77397.06;;;-146.33
37414;BMP280;23279;46.472;30.760;2022-11-20T13:26:59;77435.72;;;-146.33
37414;BMP280;23279;46.472;30.760;2022-11-20T13:29:24;77458.09;;;-146.33
37414;BMP280;23279;46.472;30.760;2022-11-20T13:31:50;77443.84;;;-146.33
37414;BMP280;23279;46.472;30.760;2022-11-20T13:34:27;77462.16;;;-146.33
37414;BMP280;23279;46.472;30.760;2022-11-20T13:36:54;77482.50;;;-146.33
37414;BMP280;23279;46.472;30.760;2022-11-20T13:39:27;77494.72;;;-146.33
37414;BMP280;23279;46.472;30.760;2022-11-20T13:41:56;77500.81;;;-146.33
37414;BMP280;23279;46.472;30.760;2022-11-20T13:44:27;77494.72;;;-146.33
37414;BMP280;23279;46.472;30.760;2022-11-20T13:46:53;77498.78;;;-146.33
37414;BMP280;23279;46.472;30.760;2022-11-20T13:49:33;77502.84;;;-146.33
37414;BMP280;23279;46.472;30.760;2022-11-20T13:57:38;77515.06;;;-146.33
37414;BMP280;23279;46.472;30.760;2022-11-20T14:02:35;77508.94;;;-146.33
37414;BMP280;23279;46.472;30.760;2022-11-20T14:05:01;77506.91;;;-146.33
37414;BMP280;23279;46.472;30.760;2022-11-20T14:07:39;77519.13;;;-146.33
37414;BMP280;23279;46.472;30.760;2022-11-20T14:10:17;77531.34;;;-146.33
37414;BMP280;23279;46.472;30.760;2022-11-20T14:12:44;77535.41;;;-146.33
37414;BMP280;23279;46.472;30.760;2022-11-20T14:15:31;77519.13;;;-146.33
37414;BMP280;23279;46.472;30.760;2022-11-20T14:17:57;77508.94;;;-146.33
37414;BMP280;23279;46.472;30.760;2022-11-20T14:20:25;77539.47;;;-146.33
37414;BMP280;23279;46.472;30.760;2022-11-20T14:22:53;77559.81;;;-146.33
37414;BMP280;23279;46.472;30.760;2022-11-20T14:25:21;77576.09;;;-146.33
37414;BMP280;23279;46.472;30.760;2022-11-20T14:27:55;77555.75;;;-146.33
37414;BMP280;23279;46.472;30.760;2022-11-20T14:30:24;77547.59;;;-146.33
37414;BMP280;23279;46.472;30.760;2022-11-20T14:32:51;77555.75;;;-146.33
37414;BMP280;23279;46.472;30.760;2022-11-20T14:35:23;77563.88;;;-146.33
37414;BMP280;23279;46.472;30.760;2022-11-20T14:37:49;77557.78;;;-146.33
37414;BMP280;23279;46.472;30.760;2022-11-20T14:40:32;77574.06;;;-146.33
37414;BMP280;23279;46.472;30.760;2022-11-20T14:43:00;77567.94;;;-146.33
37414;BMP280;23279;46.472;30.760;2022-11-20T14:45:26;77572.03;;;-146.33
37414;BMP280;23279;46.472;30.760;2022-11-20T14:47:57;77574.06;;;-146.33
37414;BMP280;23279;46.472;30.760;2022-11-20T14:50:28;77563.88;;;-146.33
37414;BMP280;23279;46.472;30.760;2022-11-20T14:52:59;77580.16;;;-146.33
37414;BMP280;23279;46.472;30.760;2022-11-20T14:55:36;77592.38;;;-146.33
37414;BMP280;23279;46.472;30.760;2022-11-20T14:58:22;77594.41;;;-146.33
37414;BMP280;23279;46.472;30.760;2022-11-20T15:00:57;77580.16;;;-146.33
37414;BMP280;23279;46.472;30.760;2022-11-20T15:03:23;77584.22;;;-146.33
37414;BMP280;23279;46.472;30.760;2022-11-20T15:05:49;77604.56;;;-146.33
37414;BMP280;23279;46.472;30.760;2022-11-20T15:08:16;77612.72;;;-146.33